ELY343 LLBG-LSZH
Flight info
| Callsign | ELY343 |
|---|---|
| Flight time | N/A |
| Altitude | 32000 |
| Route | SUVAS DCT TEZAK N128 OTHON DCT VAXOS UN128 RDS UL609 MES DCT DISOR/N0451F340 DCT LONTA UL608 DOLEV DCT YUYUH DCT GENLU DCT PODOB DCT BOSNA DCT ERKIR DCT KPT L856 NEGRA |
| Aircraft | B738/M-SDE2E3FGHIJ1LORVWXY/LB1 |
Departure
| Time | 2026-05-01 11:42 |
|---|---|
| Airport | Ben Gurion International Airport (LLBG) |
Arrival
| Time | N/A |
|---|---|
| Airport | Zürich Airport (LSZH) |
| Time | Latitude | Longitude | Altitude | Speed | Heading |
|---|---|---|---|---|---|
| 2026-05-01 10:57 | 32.00426 | 34.87555 | 119 ft | 0 kts | 227° |
| 2026-05-01 11:31 | 32.00428 | 34.87559 | 114 ft | 3 kts | 226° |
| 2026-05-01 11:32 | 32.00449 | 34.87575 | 119 ft | 4 kts | 194° |
| 2026-05-01 11:32 | 32.00471 | 34.87579 | 119 ft | 3 kts | 185° |
| 2026-05-01 11:32 | 32.00496 | 34.87585 | 114 ft | 4 kts | 204° |
| 2026-05-01 11:32 | 32.00517 | 34.87602 | 119 ft | 4 kts | 229° |
| 2026-05-01 11:33 | 32.00532 | 34.87627 | 119 ft | 4 kts | 250° |
| 2026-05-01 11:33 | 32.00534 | 34.87656 | 119 ft | 4 kts | 293° |
| 2026-05-01 11:33 | 32.00519 | 34.87680 | 114 ft | 4 kts | 323° |
| 2026-05-01 11:33 | 32.00496 | 34.87695 | 119 ft | 4 kts | 343° |
| 2026-05-01 11:34 | 32.00489 | 34.87697 | 119 ft | 1 kts | 347° |
| 2026-05-01 11:35 | 32.00490 | 34.87697 | 119 ft | 1 kts | 346° |
| 2026-05-01 11:36 | 32.00532 | 34.87685 | 117 ft | 8 kts | 348° |
| 2026-05-01 11:36 | 32.00587 | 34.87701 | 116 ft | 9 kts | 30° |
| 2026-05-01 11:36 | 32.00632 | 34.87754 | 115 ft | 10 kts | 86° |
| 2026-05-01 11:36 | 32.00605 | 34.87826 | 118 ft | 10 kts | 121° |
| 2026-05-01 11:37 | 32.00587 | 34.87907 | 115 ft | 11 kts | 64° |
| 2026-05-01 11:37 | 32.00644 | 34.87959 | 118 ft | 11 kts | 31° |
| 2026-05-01 11:37 | 32.00723 | 34.88016 | 119 ft | 16 kts | 32° |
| 2026-05-01 11:37 | 32.00815 | 34.88083 | 115 ft | 15 kts | 32° |
| 2026-05-01 11:38 | 32.00906 | 34.88148 | 117 ft | 15 kts | 31° |
| 2026-05-01 11:38 | 32.00998 | 34.88215 | 115 ft | 17 kts | 32° |
| 2026-05-01 11:38 | 32.01108 | 34.88295 | 117 ft | 20 kts | 31° |
| 2026-05-01 11:38 | 32.01226 | 34.88381 | 116 ft | 20 kts | 34° |
| 2026-05-01 11:39 | 32.01329 | 34.88482 | 116 ft | 19 kts | 45° |
| 2026-05-01 11:39 | 32.01411 | 34.88602 | 117 ft | 18 kts | 56° |
| 2026-05-01 11:39 | 32.01467 | 34.88732 | 119 ft | 18 kts | 68° |
| 2026-05-01 11:39 | 32.01501 | 34.88869 | 116 ft | 17 kts | 79° |
| 2026-05-01 11:40 | 32.01521 | 34.89004 | 119 ft | 16 kts | 79° |
| 2026-05-01 11:40 | 32.01540 | 34.89124 | 119 ft | 12 kts | 73° |
| 2026-05-01 11:40 | 32.01609 | 34.89159 | 114 ft | 12 kts | 349° |
| 2026-05-01 11:40 | 32.01691 | 34.89142 | 118 ft | 12 kts | 350° |
| 2026-05-01 11:41 | 32.01744 | 34.89089 | 118 ft | 12 kts | 267° |
| 2026-05-01 11:41 | 32.01733 | 34.89009 | 115 ft | 9 kts | 260° |
| 2026-05-01 11:41 | 32.01698 | 34.88774 | 120 ft | 62 kts | 260° |
| 2026-05-01 11:41 | 32.01580 | 34.88007 | 118 ft | 126 kts | 259° |
| 2026-05-01 11:42 | 32.01393 | 34.86766 | 155 ft | 175 kts | 261° |
| 2026-05-01 11:42 | 32.01175 | 34.85389 | 928 ft | 169 kts | 262° |
| 2026-05-01 11:42 | 32.00955 | 34.84016 | 1718 ft | 171 kts | 259° |
| 2026-05-01 11:42 | 32.00685 | 34.82613 | 2475 ft | 178 kts | 257° |
| 2026-05-01 11:43 | 32.00373 | 34.81222 | 3389 ft | 175 kts | 256° |
| 2026-05-01 11:43 | 32.00067 | 34.79799 | 3926 ft | 193 kts | 256° |
| 2026-05-01 11:43 | 31.99713 | 34.78167 | 4149 ft | 217 kts | 256° |
| 2026-05-01 11:44 | 31.99288 | 34.74379 | 4840 ft | 249 kts | 284° |
| 2026-05-01 11:44 | 31.99886 | 34.72366 | 5232 ft | 268 kts | 290° |
| 2026-05-01 11:44 | 32.00547 | 34.70323 | 5925 ft | 272 kts | 290° |
| 2026-05-01 11:44 | 32.01214 | 34.68220 | 6691 ft | 275 kts | 289° |
| 2026-05-01 11:45 | 32.01882 | 34.66096 | 7456 ft | 277 kts | 289° |
| 2026-05-01 11:45 | 32.02554 | 34.63941 | 8156 ft | 282 kts | 288° |
| 2026-05-01 11:45 | 32.03129 | 34.61723 | 8865 ft | 285 kts | 283° |
| 2026-05-01 11:45 | 32.03632 | 34.59454 | 9565 ft | 288 kts | 283° |
| 2026-05-01 11:46 | 32.04122 | 34.57172 | 10295 ft | 289 kts | 282° |
| 2026-05-01 11:46 | 32.04632 | 34.54799 | 10588 ft | 309 kts | 282° |
| 2026-05-01 11:46 | 32.05183 | 34.52259 | 10760 ft | 330 kts | 283° |
| 2026-05-01 11:46 | 32.05767 | 34.49594 | 10985 ft | 347 kts | 283° |
| 2026-05-01 11:47 | 32.06383 | 34.46817 | 11561 ft | 352 kts | 283° |
| 2026-05-01 11:47 | 32.07004 | 34.44026 | 12251 ft | 353 kts | 283° |
| 2026-05-01 11:47 | 32.07632 | 34.41213 | 12925 ft | 354 kts | 283° |
| 2026-05-01 11:47 | 32.08254 | 34.38418 | 13561 ft | 356 kts | 283° |
| 2026-05-01 11:48 | 32.08885 | 34.35584 | 14206 ft | 358 kts | 283° |
| 2026-05-01 11:48 | 32.09519 | 34.32731 | 14847 ft | 360 kts | 283° |
| 2026-05-01 11:48 | 32.10158 | 34.29856 | 15475 ft | 362 kts | 283° |
| 2026-05-01 11:48 | 32.10798 | 34.26967 | 16081 ft | 363 kts | 282° |
| 2026-05-01 11:49 | 32.11432 | 34.24108 | 16673 ft | 365 kts | 282° |
| 2026-05-01 11:49 | 32.12078 | 34.21191 | 17227 ft | 367 kts | 282° |
| 2026-05-01 11:49 | 32.12726 | 34.18257 | 17779 ft | 369 kts | 282° |
| 2026-05-01 11:49 | 32.13375 | 34.15315 | 18350 ft | 371 kts | 282° |
| 2026-05-01 11:50 | 32.14019 | 34.12398 | 18884 ft | 372 kts | 282° |
| 2026-05-01 11:50 | 32.14675 | 34.09419 | 19354 ft | 376 kts | 282° |
| 2026-05-01 11:50 | 32.15334 | 34.06425 | 19879 ft | 378 kts | 282° |
| 2026-05-01 11:50 | 32.15994 | 34.03419 | 20414 ft | 379 kts | 282° |
| 2026-05-01 11:51 | 32.16775 | 34.00428 | 20881 ft | 383 kts | 288° |
| 2026-05-01 11:51 | 32.17913 | 33.97602 | 21311 ft | 389 kts | 296° |
| 2026-05-01 11:51 | 32.19433 | 33.94918 | 21744 ft | 394 kts | 301° |
| 2026-05-01 11:51 | 32.21033 | 33.92279 | 22190 ft | 395 kts | 301° |
| 2026-05-01 11:52 | 32.22654 | 33.89632 | 22606 ft | 398 kts | 301° |
| 2026-05-01 11:52 | 32.24269 | 33.86990 | 23024 ft | 400 kts | 301° |
| 2026-05-01 11:52 | 32.25901 | 33.84313 | 23423 ft | 402 kts | 301° |
| 2026-05-01 11:52 | 32.27518 | 33.81645 | 23815 ft | 403 kts | 301° |
| 2026-05-01 11:53 | 32.29173 | 33.78908 | 24202 ft | 405 kts | 301° |
| 2026-05-01 11:53 | 32.30786 | 33.76231 | 24563 ft | 407 kts | 301° |
| 2026-05-01 11:53 | 32.32430 | 33.73496 | 24957 ft | 407 kts | 301° |
| 2026-05-01 11:53 | 32.34080 | 33.70746 | 25301 ft | 409 kts | 301° |
| 2026-05-01 11:54 | 32.35732 | 33.67991 | 25647 ft | 411 kts | 301° |
| 2026-05-01 11:54 | 32.37394 | 33.65216 | 25993 ft | 412 kts | 301° |
| 2026-05-01 11:54 | 32.39055 | 33.62443 | 26318 ft | 413 kts | 301° |
| 2026-05-01 11:54 | 32.40704 | 33.59688 | 26636 ft | 415 kts | 301° |
| 2026-05-01 11:55 | 32.42374 | 33.56894 | 26943 ft | 416 kts | 301° |
| 2026-05-01 11:55 | 32.44050 | 33.54087 | 27270 ft | 417 kts | 301° |
| 2026-05-01 11:55 | 32.45728 | 33.51277 | 27561 ft | 418 kts | 301° |
| 2026-05-01 11:55 | 32.47389 | 33.48489 | 27827 ft | 420 kts | 301° |
| 2026-05-01 11:56 | 32.49079 | 33.45653 | 28127 ft | 420 kts | 301° |
| 2026-05-01 11:56 | 32.50770 | 33.42813 | 28399 ft | 422 kts | 301° |
| 2026-05-01 11:56 | 32.52471 | 33.39955 | 28647 ft | 423 kts | 301° |
| 2026-05-01 11:56 | 32.54175 | 33.37091 | 28916 ft | 424 kts | 301° |
| 2026-05-01 11:57 | 32.55852 | 33.34270 | 29301 ft | 422 kts | 301° |
| 2026-05-01 11:57 | 32.56995 | 33.32347 | 29549 ft | 421 kts | 301° |
| 2026-05-01 11:57 | 32.59224 | 33.28592 | 30062 ft | 418 kts | 301° |
| 2026-05-01 11:57 | 32.60892 | 33.25780 | 30419 ft | 416 kts | 301° |
| 2026-05-01 11:58 | 32.62560 | 33.22964 | 30715 ft | 415 kts | 301° |
| 2026-05-01 11:58 | 32.63661 | 33.21102 | 30870 ft | 416 kts | 301° |
| 2026-05-01 11:58 | 32.67516 | 33.14582 | 31604 ft | 413 kts | 301° |
| 2026-05-01 11:59 | 32.69163 | 33.11794 | 31895 ft | 412 kts | 301° |
| 2026-05-01 11:59 | 32.70276 | 33.09907 | 32062 ft | 412 kts | 301° |
| 2026-05-01 11:59 | 32.71924 | 33.07112 | 32283 ft | 412 kts | 301° |
| 2026-05-01 12:00 | 32.75182 | 33.01582 | 32879 ft | 409 kts | 301° |
| 2026-05-01 12:00 | 32.76816 | 32.98806 | 33104 ft | 409 kts | 301° |
| 2026-05-01 12:00 | 32.80073 | 32.93265 | 33442 ft | 411 kts | 301° |
| 2026-05-01 12:01 | 32.81706 | 32.90485 | 33680 ft | 410 kts | 301° |
| 2026-05-01 12:01 | 32.83339 | 32.87704 | 33931 ft | 409 kts | 301° |
| 2026-05-01 12:01 | 32.84970 | 32.84923 | 33970 ft | 411 kts | 301° |
| 2026-05-01 12:02 | 32.88225 | 32.79363 | 33979 ft | 410 kts | 301° |
| 2026-05-01 12:02 | 32.91478 | 32.73805 | 33990 ft | 407 kts | 301° |
| 2026-05-01 12:03 | 32.94677 | 32.68329 | 33986 ft | 404 kts | 301° |
| 2026-05-01 12:03 | 32.97892 | 32.62817 | 33991 ft | 403 kts | 301° |
| 2026-05-01 12:04 | 33.01086 | 32.57328 | 33992 ft | 402 kts | 302° |
| 2026-05-01 12:04 | 33.04248 | 32.51891 | 33977 ft | 400 kts | 302° |
| 2026-05-01 12:05 | 33.07414 | 32.46440 | 33966 ft | 398 kts | 302° |
| 2026-05-01 12:05 | 33.12120 | 32.38318 | 33973 ft | 396 kts | 302° |
| 2026-05-01 12:06 | 33.15223 | 32.32954 | 33970 ft | 394 kts | 302° |
| 2026-05-01 12:06 | 33.18340 | 32.27561 | 33976 ft | 393 kts | 302° |
| 2026-05-01 12:07 | 33.21446 | 32.22176 | 33975 ft | 393 kts | 302° |
| 2026-05-01 12:07 | 33.24532 | 32.16818 | 33979 ft | 392 kts | 302° |
| 2026-05-01 12:08 | 33.27629 | 32.11432 | 33983 ft | 392 kts | 302° |
| 2026-05-01 12:08 | 33.30704 | 32.06078 | 33981 ft | 392 kts | 302° |
| 2026-05-01 12:09 | 33.33800 | 32.00679 | 33984 ft | 393 kts | 302° |
| 2026-05-01 12:09 | 33.36871 | 31.95313 | 33980 ft | 393 kts | 302° |
| 2026-05-01 12:10 | 33.41493 | 31.87227 | 33981 ft | 393 kts | 302° |
| 2026-05-01 12:11 | 33.46127 | 31.79102 | 33982 ft | 393 kts | 302° |
| 2026-05-01 12:11 | 33.49209 | 31.73689 | 33981 ft | 393 kts | 302° |
| 2026-05-01 12:12 | 33.52270 | 31.68305 | 33981 ft | 393 kts | 302° |
| 2026-05-01 12:12 | 33.55357 | 31.62866 | 33981 ft | 393 kts | 302° |
| 2026-05-01 12:13 | 33.58422 | 31.57458 | 33979 ft | 393 kts | 302° |
| 2026-05-01 12:13 | 33.61478 | 31.52058 | 33982 ft | 393 kts | 302° |
| 2026-05-01 12:14 | 33.64553 | 31.46617 | 33980 ft | 392 kts | 302° |
| 2026-05-01 12:14 | 33.67599 | 31.41220 | 33981 ft | 392 kts | 302° |
| 2026-05-01 12:15 | 33.70657 | 31.35789 | 33984 ft | 391 kts | 302° |
| 2026-05-01 12:15 | 33.73713 | 31.30356 | 33980 ft | 392 kts | 301° |
| 2026-05-01 12:16 | 33.76772 | 31.24914 | 33973 ft | 393 kts | 301° |
| 2026-05-01 12:16 | 33.79812 | 31.19493 | 33972 ft | 393 kts | 301° |
| 2026-05-01 12:17 | 33.82870 | 31.14033 | 33972 ft | 393 kts | 301° |
| 2026-05-01 12:17 | 33.85914 | 31.08589 | 33971 ft | 393 kts | 301° |
| 2026-05-01 12:18 | 33.88959 | 31.03140 | 33974 ft | 394 kts | 301° |
| 2026-05-01 12:18 | 33.92030 | 30.97631 | 33975 ft | 394 kts | 301° |
| 2026-05-01 12:19 | 33.95079 | 30.92152 | 33971 ft | 395 kts | 301° |
| 2026-05-01 12:19 | 33.98129 | 30.86665 | 33972 ft | 396 kts | 301° |
| 2026-05-01 12:20 | 34.01183 | 30.81160 | 33970 ft | 396 kts | 301° |
| 2026-05-01 12:20 | 34.04247 | 30.75632 | 33980 ft | 396 kts | 301° |
| 2026-05-01 12:21 | 34.07307 | 30.70102 | 33979 ft | 395 kts | 301° |
| 2026-05-01 12:21 | 34.10345 | 30.64606 | 33983 ft | 395 kts | 301° |
| 2026-05-01 12:22 | 34.13377 | 30.59111 | 33982 ft | 394 kts | 301° |
| 2026-05-01 12:22 | 34.16418 | 30.53588 | 33980 ft | 394 kts | 301° |
| 2026-05-01 12:23 | 34.19434 | 30.48104 | 33980 ft | 394 kts | 300° |
| 2026-05-01 12:23 | 34.22474 | 30.42570 | 33983 ft | 394 kts | 300° |
| 2026-05-01 12:24 | 34.25492 | 30.37063 | 33987 ft | 394 kts | 300° |
| 2026-05-01 12:24 | 34.28525 | 30.31522 | 33981 ft | 395 kts | 300° |
| 2026-05-01 12:25 | 34.33060 | 30.23225 | 33984 ft | 395 kts | 300° |
| 2026-05-01 12:26 | 34.36095 | 30.17660 | 33978 ft | 395 kts | 300° |
| 2026-05-01 12:26 | 34.40610 | 30.09367 | 33978 ft | 395 kts | 300° |
| 2026-05-01 12:27 | 34.45166 | 30.01012 | 33977 ft | 396 kts | 302° |
| 2026-05-01 12:28 | 34.50797 | 29.93650 | 33981 ft | 400 kts | 310° |
| 2026-05-01 12:29 | 34.56659 | 29.86474 | 33969 ft | 400 kts | 310° |
| 2026-05-01 12:29 | 34.62495 | 29.79263 | 33966 ft | 399 kts | 310° |
| 2026-05-01 12:30 | 34.68326 | 29.72034 | 33955 ft | 398 kts | 309° |
| 2026-05-01 12:31 | 34.72177 | 29.67254 | 33950 ft | 397 kts | 309° |
| 2026-05-01 12:31 | 34.76032 | 29.62462 | 33958 ft | 396 kts | 309° |
| 2026-05-01 12:32 | 34.79900 | 29.57646 | 33960 ft | 395 kts | 309° |
| 2026-05-01 12:32 | 34.85634 | 29.50497 | 33961 ft | 394 kts | 309° |
| 2026-05-01 12:33 | 34.89471 | 29.45705 | 33961 ft | 394 kts | 309° |
| 2026-05-01 12:33 | 34.93316 | 29.40975 | 33957 ft | 396 kts | 313° |
| 2026-05-01 12:34 | 34.97700 | 29.36852 | 33959 ft | 398 kts | 317° |
| 2026-05-01 12:34 | 35.02148 | 29.32804 | 33963 ft | 398 kts | 317° |
| 2026-05-01 12:35 | 35.06578 | 29.28737 | 33964 ft | 398 kts | 316° |
| 2026-05-01 12:35 | 35.10989 | 29.24660 | 33961 ft | 398 kts | 316° |
| 2026-05-01 12:36 | 35.15379 | 29.20584 | 33965 ft | 398 kts | 316° |
| 2026-05-01 12:36 | 35.19799 | 29.16472 | 33963 ft | 398 kts | 316° |
| 2026-05-01 12:37 | 35.24196 | 29.12378 | 33969 ft | 398 kts | 316° |
| 2026-05-01 12:37 | 35.28608 | 29.08263 | 33962 ft | 397 kts | 316° |
| 2026-05-01 12:38 | 35.32983 | 29.04175 | 33961 ft | 397 kts | 316° |
| 2026-05-01 12:38 | 35.37393 | 29.00048 | 33962 ft | 397 kts | 316° |
| 2026-05-01 12:39 | 35.41766 | 28.95953 | 33966 ft | 397 kts | 316° |
| 2026-05-01 12:39 | 35.46168 | 28.91822 | 33972 ft | 397 kts | 316° |
| 2026-05-01 12:40 | 35.50532 | 28.87724 | 33973 ft | 397 kts | 316° |
| 2026-05-01 12:40 | 35.54906 | 28.83610 | 33973 ft | 397 kts | 316° |
| 2026-05-01 12:41 | 35.59293 | 28.79479 | 33979 ft | 396 kts | 316° |
| 2026-05-01 12:41 | 35.63675 | 28.75346 | 33980 ft | 396 kts | 316° |
| 2026-05-01 12:42 | 35.68026 | 28.71235 | 33974 ft | 396 kts | 316° |
| 2026-05-01 12:42 | 35.72407 | 28.67091 | 33972 ft | 396 kts | 316° |
| 2026-05-01 12:43 | 35.76756 | 28.62971 | 33973 ft | 396 kts | 316° |
| 2026-05-01 12:43 | 35.81131 | 28.58821 | 33970 ft | 396 kts | 316° |
| 2026-05-01 12:44 | 35.85484 | 28.54685 | 33975 ft | 396 kts | 316° |
| 2026-05-01 12:45 | 35.94232 | 28.46355 | 33971 ft | 397 kts | 316° |
| 2026-05-01 12:45 | 35.98596 | 28.42192 | 33972 ft | 397 kts | 316° |
| 2026-05-01 12:46 | 36.02976 | 28.38008 | 33974 ft | 397 kts | 316° |
| 2026-05-01 12:46 | 36.07334 | 28.33839 | 33971 ft | 397 kts | 316° |
| 2026-05-01 12:47 | 36.11686 | 28.29669 | 33971 ft | 397 kts | 316° |
| 2026-05-01 12:47 | 36.16061 | 28.25472 | 33975 ft | 397 kts | 315° |
| 2026-05-01 12:48 | 36.20424 | 28.21278 | 33972 ft | 396 kts | 315° |
| 2026-05-01 12:48 | 36.24762 | 28.17105 | 33971 ft | 396 kts | 315° |
| 2026-05-01 12:49 | 36.28383 | 28.13617 | 33967 ft | 396 kts | 316° |
| 2026-05-01 12:49 | 36.32739 | 28.09414 | 33959 ft | 396 kts | 315° |
| 2026-05-01 12:50 | 36.36900 | 28.04998 | 33962 ft | 393 kts | 311° |
| 2026-05-01 12:50 | 36.40849 | 28.00389 | 33958 ft | 392 kts | 310° |
| 2026-05-01 12:51 | 36.44824 | 27.95732 | 33962 ft | 392 kts | 310° |
| 2026-05-01 12:52 | 36.50779 | 27.88806 | 33972 ft | 391 kts | 311° |
| 2026-05-01 12:52 | 36.56765 | 27.81860 | 33971 ft | 391 kts | 310° |
| 2026-05-01 12:53 | 36.62715 | 27.74945 | 33969 ft | 392 kts | 310° |
| 2026-05-01 12:54 | 36.66689 | 27.70316 | 33968 ft | 392 kts | 310° |
| 2026-05-01 12:54 | 36.72665 | 27.63345 | 33983 ft | 390 kts | 310° |
| 2026-05-01 12:55 | 36.78569 | 27.56440 | 33998 ft | 390 kts | 310° |
| 2026-05-01 12:56 | 36.82543 | 27.51782 | 34003 ft | 390 kts | 310° |
| 2026-05-01 12:56 | 36.86482 | 27.47160 | 34009 ft | 390 kts | 310° |
| 2026-05-01 12:57 | 36.90447 | 27.42499 | 34010 ft | 390 kts | 310° |
| 2026-05-01 12:57 | 36.96375 | 27.35520 | 34010 ft | 391 kts | 310° |
| 2026-05-01 12:58 | 37.00317 | 27.30869 | 34011 ft | 391 kts | 310° |
| 2026-05-01 12:59 | 37.06249 | 27.23859 | 34011 ft | 391 kts | 310° |
| 2026-05-01 12:59 | 37.12181 | 27.16837 | 34004 ft | 391 kts | 310° |
| 2026-05-01 13:00 | 37.18084 | 27.09829 | 34009 ft | 390 kts | 309° |
| 2026-05-01 13:01 | 37.23973 | 27.02822 | 34007 ft | 389 kts | 309° |
| 2026-05-01 13:02 | 37.29833 | 26.95835 | 34027 ft | 387 kts | 309° |
| 2026-05-01 13:07 | 37.74234 | 26.46637 | 34039 ft | 384 kts | 311° |
| 2026-05-01 13:08 | 37.78286 | 26.42207 | 34040 ft | 383 kts | 311° |
| 2026-05-01 13:08 | 37.82290 | 26.37824 | 34043 ft | 383 kts | 310° |
| 2026-05-01 13:09 | 37.86323 | 26.33401 | 34046 ft | 382 kts | 310° |
| 2026-05-01 13:09 | 37.90323 | 26.29017 | 34049 ft | 381 kts | 310° |
| 2026-05-01 13:10 | 37.94345 | 26.24613 | 34054 ft | 381 kts | 310° |
| 2026-05-01 13:10 | 37.98340 | 26.20228 | 34056 ft | 381 kts | 310° |
| 2026-05-01 13:11 | 38.02350 | 26.15825 | 34063 ft | 381 kts | 310° |
| 2026-05-01 13:11 | 38.06341 | 26.11431 | 34065 ft | 380 kts | 310° |
| 2026-05-01 13:12 | 38.10324 | 26.07039 | 34073 ft | 380 kts | 310° |
| 2026-05-01 13:12 | 38.14325 | 26.02624 | 34076 ft | 380 kts | 310° |
| 2026-05-01 13:13 | 38.18303 | 25.98231 | 34077 ft | 380 kts | 310° |
| 2026-05-01 13:13 | 38.22309 | 25.93801 | 34077 ft | 381 kts | 310° |
| 2026-05-01 13:14 | 38.26317 | 25.89421 | 34074 ft | 383 kts | 312° |
| 2026-05-01 13:14 | 38.30527 | 25.85199 | 34076 ft | 384 kts | 313° |
| 2026-05-01 13:15 | 38.34757 | 25.81036 | 34076 ft | 385 kts | 313° |
| 2026-05-01 13:15 | 38.38991 | 25.76845 | 34083 ft | 384 kts | 313° |
| 2026-05-01 13:16 | 38.43188 | 25.72666 | 34082 ft | 384 kts | 313° |
| 2026-05-01 13:16 | 38.47412 | 25.68442 | 34088 ft | 385 kts | 313° |
| 2026-05-01 13:17 | 38.55847 | 25.59987 | 34094 ft | 387 kts | 313° |
| 2026-05-01 13:18 | 38.62180 | 25.53616 | 34088 ft | 389 kts | 313° |
| 2026-05-01 13:18 | 38.66445 | 25.49322 | 34102 ft | 389 kts | 313° |
| 2026-05-01 13:19 | 38.70717 | 25.45014 | 34102 ft | 390 kts | 313° |
| 2026-05-01 13:20 | 38.77106 | 25.38558 | 34111 ft | 391 kts | 313° |
| 2026-05-01 13:20 | 38.81372 | 25.34241 | 34115 ft | 392 kts | 313° |
| 2026-05-01 13:21 | 38.87819 | 25.27700 | 34125 ft | 393 kts | 313° |
| 2026-05-01 13:21 | 38.92089 | 25.23359 | 34131 ft | 393 kts | 313° |
| 2026-05-01 13:22 | 38.96391 | 25.18977 | 34138 ft | 394 kts | 313° |
| 2026-05-01 13:22 | 39.00670 | 25.14612 | 34144 ft | 394 kts | 313° |
| 2026-05-01 13:23 | 39.04969 | 25.10220 | 34154 ft | 394 kts | 313° |
| 2026-05-01 13:23 | 39.09252 | 25.05839 | 34168 ft | 395 kts | 313° |
| 2026-05-01 13:24 | 39.13549 | 25.01433 | 34164 ft | 395 kts | 313° |
| 2026-05-01 13:25 | 39.20026 | 24.94783 | 34178 ft | 396 kts | 313° |
| 2026-05-01 13:25 | 39.24325 | 24.90360 | 34180 ft | 397 kts | 313° |
| 2026-05-01 13:26 | 39.28659 | 24.85895 | 34188 ft | 398 kts | 313° |
| 2026-05-01 13:26 | 39.32962 | 24.81452 | 34184 ft | 398 kts | 313° |
| 2026-05-01 13:27 | 39.37304 | 24.76962 | 34191 ft | 398 kts | 314° |
| 2026-05-01 13:27 | 39.43779 | 24.70252 | 34196 ft | 398 kts | 314° |
| 2026-05-01 13:28 | 39.50275 | 24.63506 | 34188 ft | 399 kts | 314° |
| 2026-05-01 13:29 | 39.58934 | 24.54487 | 34192 ft | 400 kts | 314° |
| 2026-05-01 13:31 | 39.71907 | 24.40916 | 34197 ft | 401 kts | 314° |
| 2026-05-01 13:32 | 39.82771 | 24.29502 | 34200 ft | 403 kts | 314° |
| 2026-05-01 13:33 | 39.93686 | 24.17985 | 34211 ft | 405 kts | 314° |
| 2026-05-01 13:34 | 40.02446 | 24.08705 | 34224 ft | 404 kts | 314° |
| 2026-05-01 13:35 | 40.08971 | 24.01776 | 34219 ft | 404 kts | 314° |
| 2026-05-01 13:36 | 40.15483 | 23.94839 | 34227 ft | 404 kts | 314° |
| 2026-05-01 13:36 | 40.22024 | 23.87853 | 34217 ft | 403 kts | 314° |
| 2026-05-01 13:37 | 40.25638 | 23.83986 | 34223 ft | 403 kts | 314° |
| 2026-05-01 13:37 | 40.30701 | 23.78560 | 34218 ft | 403 kts | 314° |
| 2026-05-01 13:38 | 40.37215 | 23.71563 | 34227 ft | 404 kts | 314° |
| 2026-05-01 13:39 | 40.41566 | 23.66878 | 34235 ft | 405 kts | 314° |
| 2026-05-01 13:39 | 40.45903 | 23.62203 | 34237 ft | 406 kts | 314° |
| 2026-05-01 13:40 | 40.50278 | 23.57476 | 34233 ft | 407 kts | 314° |
| 2026-05-01 13:40 | 40.54627 | 23.52769 | 34229 ft | 407 kts | 314° |
| 2026-05-01 13:41 | 40.58277 | 23.48813 | 34236 ft | 408 kts | 314° |
| 2026-05-01 13:41 | 40.62664 | 23.44051 | 34236 ft | 409 kts | 314° |
| 2026-05-01 13:42 | 40.67061 | 23.39268 | 34245 ft | 410 kts | 314° |
| 2026-05-01 13:42 | 40.71446 | 23.34492 | 34238 ft | 411 kts | 314° |
| 2026-05-01 13:43 | 40.75856 | 23.29679 | 34236 ft | 411 kts | 314° |
| 2026-05-01 13:43 | 40.80277 | 23.24843 | 34242 ft | 412 kts | 315° |
| 2026-05-01 13:44 | 40.84701 | 23.19998 | 34245 ft | 413 kts | 315° |
| 2026-05-01 13:44 | 40.89138 | 23.15130 | 34243 ft | 414 kts | 315° |
| 2026-05-01 13:45 | 40.93546 | 23.10286 | 34239 ft | 414 kts | 315° |
| 2026-05-01 13:45 | 40.97984 | 23.05400 | 34240 ft | 414 kts | 315° |
| 2026-05-01 13:46 | 41.02385 | 23.00543 | 34235 ft | 414 kts | 315° |
| 2026-05-01 13:46 | 41.06812 | 22.95651 | 34233 ft | 414 kts | 315° |
| 2026-05-01 13:47 | 41.11238 | 22.90753 | 34241 ft | 414 kts | 315° |
| 2026-05-01 13:47 | 41.15626 | 22.85886 | 34240 ft | 413 kts | 315° |
| 2026-05-01 13:48 | 41.20042 | 22.80982 | 34245 ft | 414 kts | 315° |
| 2026-05-01 13:48 | 41.24445 | 22.76060 | 34237 ft | 414 kts | 314° |
| 2026-05-01 13:49 | 41.28392 | 22.70530 | 34246 ft | 411 kts | 308° |
| 2026-05-01 13:49 | 41.32228 | 22.64845 | 34239 ft | 413 kts | 308° |
| 2026-05-01 13:50 | 41.36065 | 22.59174 | 34237 ft | 414 kts | 308° |
| 2026-05-01 13:50 | 41.39941 | 22.53470 | 34238 ft | 415 kts | 309° |
| 2026-05-01 13:51 | 41.43805 | 22.47783 | 34238 ft | 416 kts | 309° |
| 2026-05-01 13:51 | 41.47699 | 22.42048 | 34247 ft | 417 kts | 309° |
| 2026-05-01 13:52 | 41.51603 | 22.36281 | 34237 ft | 418 kts | 309° |
| 2026-05-01 13:52 | 41.55471 | 22.30558 | 34239 ft | 418 kts | 309° |
| 2026-05-01 13:53 | 41.59371 | 22.24777 | 34241 ft | 419 kts | 309° |
| 2026-05-01 13:53 | 41.65224 | 22.16079 | 34237 ft | 420 kts | 309° |
| 2026-05-01 13:54 | 41.69136 | 22.10253 | 34240 ft | 421 kts | 309° |
| 2026-05-01 13:54 | 41.73027 | 22.04445 | 34236 ft | 421 kts | 309° |
| 2026-05-01 13:55 | 41.76949 | 21.98580 | 34247 ft | 422 kts | 309° |
| 2026-05-01 13:55 | 41.80853 | 21.92729 | 34236 ft | 422 kts | 309° |
| 2026-05-01 13:56 | 41.84777 | 21.86839 | 34241 ft | 423 kts | 309° |
| 2026-05-01 13:56 | 41.88676 | 21.80973 | 34239 ft | 423 kts | 309° |
| 2026-05-01 13:57 | 41.92601 | 21.75057 | 34236 ft | 423 kts | 309° |
| 2026-05-01 13:57 | 41.96515 | 21.69145 | 34235 ft | 422 kts | 309° |
| 2026-05-01 13:58 | 42.00394 | 21.63276 | 34236 ft | 421 kts | 309° |
| 2026-05-01 13:58 | 42.04282 | 21.57378 | 34237 ft | 421 kts | 309° |
| 2026-05-01 13:59 | 42.08156 | 21.51493 | 34244 ft | 421 kts | 309° |
| 2026-05-01 13:59 | 42.12044 | 21.45577 | 34239 ft | 421 kts | 309° |
| 2026-05-01 14:00 | 42.15931 | 21.39648 | 34233 ft | 421 kts | 309° |
| 2026-05-01 14:00 | 42.19728 | 21.33700 | 34247 ft | 421 kts | 308° |
| 2026-05-01 14:01 | 42.23516 | 21.27659 | 34247 ft | 421 kts | 308° |
| 2026-05-01 14:01 | 42.27177 | 21.21822 | 34251 ft | 422 kts | 309° |
| 2026-05-01 14:02 | 42.30996 | 21.15741 | 34257 ft | 423 kts | 309° |
| 2026-05-01 14:02 | 42.34779 | 21.09707 | 34266 ft | 423 kts | 309° |
| 2026-05-01 14:03 | 42.38592 | 21.03617 | 34258 ft | 424 kts | 309° |
| 2026-05-01 14:03 | 42.42405 | 20.97515 | 34259 ft | 424 kts | 309° |
| 2026-05-01 14:04 | 42.46198 | 20.91430 | 34256 ft | 425 kts | 309° |
| 2026-05-01 14:04 | 42.49381 | 20.86317 | 34262 ft | 425 kts | 309° |
| 2026-05-01 14:05 | 42.53826 | 20.79159 | 34269 ft | 426 kts | 309° |
| 2026-05-01 14:05 | 42.57646 | 20.72993 | 34261 ft | 427 kts | 309° |
| 2026-05-01 14:06 | 42.61447 | 20.66846 | 34258 ft | 427 kts | 309° |
| 2026-05-01 14:06 | 42.65274 | 20.60644 | 34257 ft | 426 kts | 309° |
| 2026-05-01 14:07 | 42.69088 | 20.54451 | 34256 ft | 427 kts | 309° |
| 2026-05-01 14:08 | 42.74774 | 20.45195 | 34257 ft | 426 kts | 309° |
| 2026-05-01 14:08 | 42.78572 | 20.38995 | 34246 ft | 425 kts | 309° |
| 2026-05-01 14:09 | 42.82340 | 20.32831 | 34242 ft | 425 kts | 309° |
| 2026-05-01 14:09 | 42.86127 | 20.26620 | 34249 ft | 425 kts | 309° |
| 2026-05-01 14:10 | 42.89902 | 20.20413 | 34239 ft | 425 kts | 309° |
| 2026-05-01 14:10 | 42.93650 | 20.14239 | 34239 ft | 425 kts | 309° |
| 2026-05-01 14:11 | 42.97437 | 20.07990 | 34239 ft | 426 kts | 309° |
| 2026-05-01 14:11 | 43.03032 | 19.98734 | 34242 ft | 427 kts | 309° |
| 2026-05-01 14:12 | 43.06807 | 19.92473 | 34241 ft | 428 kts | 310° |
| 2026-05-01 14:12 | 43.10614 | 19.86147 | 34238 ft | 429 kts | 310° |
| 2026-05-01 14:13 | 43.13771 | 19.80889 | 34238 ft | 430 kts | 310° |
| 2026-05-01 14:13 | 43.18200 | 19.73503 | 34242 ft | 431 kts | 310° |
| 2026-05-01 14:14 | 43.22021 | 19.67111 | 34244 ft | 432 kts | 310° |
| 2026-05-01 14:14 | 43.25820 | 19.60741 | 34247 ft | 433 kts | 310° |
| 2026-05-01 14:15 | 43.29632 | 19.54338 | 34235 ft | 433 kts | 310° |
| 2026-05-01 14:15 | 43.33422 | 19.47968 | 34242 ft | 433 kts | 310° |
| 2026-05-01 14:16 | 43.37235 | 19.41532 | 34251 ft | 433 kts | 310° |
| 2026-05-01 14:16 | 43.41037 | 19.35083 | 34246 ft | 433 kts | 310° |
| 2026-05-01 14:17 | 43.44811 | 19.28678 | 34249 ft | 433 kts | 310° |
| 2026-05-01 14:17 | 43.48612 | 19.22215 | 34249 ft | 433 kts | 310° |
| 2026-05-01 14:18 | 43.52426 | 19.15719 | 34241 ft | 442 kts | 310° |
| 2026-05-01 14:18 | 43.55713 | 19.10229 | 34249 ft | 449 kts | 311° |
| 2026-05-01 14:19 | 43.60499 | 19.02539 | 34238 ft | 455 kts | 312° |
| 2026-05-01 14:19 | 43.64637 | 18.95891 | 34235 ft | 455 kts | 312° |
| 2026-05-01 14:20 | 43.70783 | 18.85928 | 34237 ft | 455 kts | 312° |
| 2026-05-01 14:21 | 43.74896 | 18.79227 | 34239 ft | 455 kts | 312° |
| 2026-05-01 14:21 | 43.78995 | 18.72537 | 34246 ft | 455 kts | 312° |
| 2026-05-01 14:22 | 43.85105 | 18.62536 | 34263 ft | 455 kts | 312° |
| 2026-05-01 14:22 | 43.89193 | 18.55826 | 34265 ft | 455 kts | 313° |
| 2026-05-01 14:23 | 43.93291 | 18.49080 | 34272 ft | 456 kts | 313° |
| 2026-05-01 14:23 | 43.97358 | 18.42372 | 34268 ft | 456 kts | 313° |
| 2026-05-01 14:24 | 44.01432 | 18.35638 | 34263 ft | 456 kts | 313° |
| 2026-05-01 14:24 | 44.05518 | 18.28866 | 34264 ft | 457 kts | 313° |
| 2026-05-01 14:25 | 44.09586 | 18.22111 | 34267 ft | 457 kts | 313° |
| 2026-05-01 14:25 | 44.13677 | 18.15300 | 34268 ft | 458 kts | 313° |
| 2026-05-01 14:26 | 44.19789 | 18.05095 | 34271 ft | 458 kts | 313° |
| 2026-05-01 14:27 | 44.23876 | 17.98251 | 34269 ft | 459 kts | 313° |
| 2026-05-01 14:27 | 44.27947 | 17.91418 | 34263 ft | 460 kts | 313° |
| 2026-05-01 14:28 | 44.34068 | 17.81115 | 34273 ft | 459 kts | 313° |
| 2026-05-01 14:28 | 44.38155 | 17.74226 | 34277 ft | 459 kts | 313° |
| 2026-05-01 14:29 | 44.41588 | 17.68547 | 34293 ft | 459 kts | 314° |
| 2026-05-01 14:30 | 44.50535 | 17.53823 | 34297 ft | 458 kts | 315° |
| 2026-05-01 14:31 | 44.56045 | 17.44695 | 34313 ft | 459 kts | 315° |
| 2026-05-01 14:31 | 44.60148 | 17.37875 | 34317 ft | 460 kts | 315° |
| 2026-05-01 14:32 | 44.64282 | 17.30985 | 34310 ft | 462 kts | 315° |
| 2026-05-01 14:32 | 44.68398 | 17.24111 | 34309 ft | 462 kts | 315° |
| 2026-05-01 14:33 | 44.72538 | 17.17177 | 34301 ft | 462 kts | 315° |
| 2026-05-01 14:33 | 44.76678 | 17.10226 | 34311 ft | 462 kts | 315° |
| 2026-05-01 14:34 | 44.80784 | 17.03316 | 34318 ft | 463 kts | 316° |
| 2026-05-01 14:34 | 44.84917 | 16.96342 | 34309 ft | 463 kts | 316° |
| 2026-05-01 14:35 | 44.89048 | 16.89357 | 34308 ft | 463 kts | 316° |
| 2026-05-01 14:35 | 44.93181 | 16.82352 | 34312 ft | 463 kts | 316° |
| 2026-05-01 14:36 | 44.97301 | 16.75349 | 34316 ft | 463 kts | 316° |
| 2026-05-01 14:36 | 45.01404 | 16.68358 | 34312 ft | 464 kts | 316° |
| 2026-05-01 14:37 | 45.05521 | 16.61324 | 34313 ft | 464 kts | 316° |
| 2026-05-01 14:37 | 45.09641 | 16.54270 | 34312 ft | 464 kts | 316° |
| 2026-05-01 14:38 | 45.13722 | 16.47268 | 34310 ft | 464 kts | 316° |
| 2026-05-01 14:38 | 45.17840 | 16.40182 | 34314 ft | 465 kts | 316° |
| 2026-05-01 14:39 | 45.21946 | 16.33101 | 34318 ft | 464 kts | 317° |
| 2026-05-01 14:39 | 45.26053 | 16.25997 | 34309 ft | 465 kts | 317° |
| 2026-05-01 14:40 | 45.30134 | 16.18919 | 34322 ft | 466 kts | 317° |
| 2026-05-01 14:40 | 45.34237 | 16.11787 | 34319 ft | 466 kts | 317° |
| 2026-05-01 14:41 | 45.38347 | 16.04627 | 34323 ft | 466 kts | 317° |
| 2026-05-01 14:41 | 45.42456 | 15.97448 | 34325 ft | 467 kts | 317° |
| 2026-05-01 14:42 | 45.46534 | 15.90305 | 34326 ft | 468 kts | 317° |
| 2026-05-01 14:42 | 45.50642 | 15.83091 | 34318 ft | 468 kts | 317° |
| 2026-05-01 14:43 | 45.54749 | 15.75861 | 34322 ft | 469 kts | 317° |
| 2026-05-01 14:43 | 45.58853 | 15.68618 | 34324 ft | 469 kts | 317° |
| 2026-05-01 14:44 | 45.62951 | 15.61366 | 34321 ft | 469 kts | 317° |
| 2026-05-01 14:44 | 45.69076 | 15.50492 | 34319 ft | 469 kts | 317° |
| 2026-05-01 14:45 | 45.75201 | 15.39572 | 34322 ft | 468 kts | 317° |
| 2026-05-01 14:46 | 45.79251 | 15.32334 | 34321 ft | 468 kts | 317° |
| 2026-05-01 14:46 | 45.85349 | 15.21395 | 34317 ft | 468 kts | 317° |
| 2026-05-01 14:47 | 45.89413 | 15.14084 | 34300 ft | 467 kts | 316° |
| 2026-05-01 14:48 | 45.95473 | 15.03142 | 34321 ft | 466 kts | 316° |
| 2026-05-01 14:48 | 46.01501 | 14.92214 | 34308 ft | 466 kts | 316° |
| 2026-05-01 14:49 | 46.09534 | 14.77588 | 34298 ft | 464 kts | 316° |
| 2026-05-01 14:50 | 46.17523 | 14.62965 | 34292 ft | 464 kts | 316° |
| 2026-05-01 14:51 | 46.23488 | 14.51993 | 34295 ft | 463 kts | 316° |
| 2026-05-01 14:52 | 46.29435 | 14.41016 | 34291 ft | 462 kts | 316° |
| 2026-05-01 14:53 | 46.35351 | 14.30050 | 34283 ft | 460 kts | 316° |
| 2026-05-01 14:53 | 46.39293 | 14.22722 | 34296 ft | 461 kts | 316° |
| 2026-05-01 14:54 | 46.43227 | 14.15391 | 34273 ft | 462 kts | 316° |
| 2026-05-01 14:54 | 46.47165 | 14.08030 | 34327 ft | 462 kts | 316° |
| 2026-05-01 14:55 | 46.51100 | 14.00660 | 34328 ft | 464 kts | 315° |
| 2026-05-01 14:55 | 46.55081 | 13.93181 | 34315 ft | 467 kts | 315° |
| 2026-05-01 14:56 | 46.59043 | 13.85713 | 34315 ft | 466 kts | 315° |
| 2026-05-01 14:56 | 46.62978 | 13.78273 | 34317 ft | 466 kts | 315° |
| 2026-05-01 14:57 | 46.66938 | 13.70769 | 34316 ft | 465 kts | 315° |
| 2026-05-01 14:57 | 46.72828 | 13.59573 | 34318 ft | 464 kts | 314° |
| 2026-05-01 14:58 | 46.76733 | 13.52123 | 34321 ft | 463 kts | 314° |
| 2026-05-01 14:58 | 46.80624 | 13.44685 | 34314 ft | 462 kts | 314° |
| 2026-05-01 14:59 | 46.84518 | 13.37216 | 34296 ft | 460 kts | 314° |
| 2026-05-01 14:59 | 46.88377 | 13.29798 | 34304 ft | 459 kts | 314° |
| 2026-05-01 15:00 | 46.94150 | 13.18660 | 34299 ft | 456 kts | 313° |
| 2026-05-01 15:01 | 46.97960 | 13.11285 | 34314 ft | 456 kts | 313° |
| 2026-05-01 15:01 | 47.01795 | 13.03845 | 34300 ft | 457 kts | 313° |
| 2026-05-01 15:02 | 47.05622 | 12.96398 | 34328 ft | 457 kts | 313° |
| 2026-05-01 15:02 | 47.09443 | 12.88944 | 34322 ft | 459 kts | 313° |
| 2026-05-01 15:03 | 47.13293 | 12.81410 | 34300 ft | 460 kts | 313° |
| 2026-05-01 15:03 | 47.17118 | 12.73905 | 34313 ft | 460 kts | 313° |
| 2026-05-01 15:04 | 47.20966 | 12.66338 | 34303 ft | 461 kts | 312° |
| 2026-05-01 15:04 | 47.24779 | 12.58816 | 34293 ft | 459 kts | 311° |
| 2026-05-01 15:05 | 47.28595 | 12.51267 | 34300 ft | 458 kts | 311° |
| 2026-05-01 15:05 | 47.32360 | 12.43800 | 34312 ft | 455 kts | 311° |
| 2026-05-01 15:06 | 47.36144 | 12.36276 | 34326 ft | 454 kts | 311° |
| 2026-05-01 15:06 | 47.39897 | 12.28791 | 34319 ft | 454 kts | 310° |
| 2026-05-01 15:07 | 47.43640 | 12.21308 | 34319 ft | 455 kts | 310° |
| 2026-05-01 15:07 | 47.47408 | 12.13758 | 34301 ft | 454 kts | 310° |
| 2026-05-01 15:08 | 47.51136 | 12.06266 | 34300 ft | 454 kts | 310° |
| 2026-05-01 15:08 | 47.54124 | 11.97926 | 34296 ft | 464 kts | 292° |
| 2026-05-01 15:09 | 47.55577 | 11.88563 | 34284 ft | 469 kts | 284° |
| 2026-05-01 15:09 | 47.56731 | 11.79077 | 34294 ft | 469 kts | 283° |
| 2026-05-01 15:10 | 47.57918 | 11.69541 | 34273 ft | 470 kts | 284° |
| 2026-05-01 15:10 | 47.59749 | 11.55329 | 34273 ft | 470 kts | 284° |
| 2026-05-01 15:11 | 47.61578 | 11.41087 | 34281 ft | 469 kts | 284° |
| 2026-05-01 15:12 | 47.62788 | 11.31578 | 34282 ft | 469 kts | 284° |
| 2026-05-01 15:12 | 47.64586 | 11.17310 | 34288 ft | 468 kts | 284° |
| 2026-05-01 15:14 | 47.67501 | 10.93852 | 33983 ft | 470 kts | 283° |
| 2026-05-01 15:14 | 47.68091 | 10.89060 | 33737 ft | 468 kts | 283° |
| 2026-05-01 15:14 | 47.69248 | 10.79606 | 32493 ft | 467 kts | 283° |
| 2026-05-01 15:15 | 47.70407 | 10.70075 | 30929 ft | 469 kts | 283° |
| 2026-05-01 15:15 | 47.71552 | 10.60574 | 29734 ft | 462 kts | 283° |
| 2026-05-01 15:16 | 47.72662 | 10.51311 | 28592 ft | 455 kts | 283° |
| 2026-05-01 15:16 | 47.73733 | 10.42321 | 27483 ft | 448 kts | 282° |
| 2026-05-01 15:17 | 47.74557 | 10.34756 | 26545 ft | 443 kts | 277° |
| 2026-05-01 15:18 | 47.74325 | 10.21165 | 24969 ft | 436 kts | 269° |
| 2026-05-01 15:18 | 47.74190 | 10.16679 | 24409 ft | 433 kts | 269° |
| 2026-05-01 15:19 | 47.73856 | 10.03384 | 22766 ft | 426 kts | 270° |
| 2026-05-01 15:19 | 47.73638 | 9.94603 | 21668 ft | 421 kts | 269° |
| 2026-05-01 15:19 | 47.73526 | 9.90314 | 21122 ft | 419 kts | 269° |
| 2026-05-01 15:20 | 47.73298 | 9.81681 | 20019 ft | 415 kts | 269° |
| 2026-05-01 15:20 | 47.73184 | 9.77404 | 19489 ft | 412 kts | 269° |
| 2026-05-01 15:20 | 47.73071 | 9.73232 | 19243 ft | 403 kts | 269° |
| 2026-05-01 15:21 | 47.72957 | 9.69112 | 18992 ft | 396 kts | 269° |
| 2026-05-01 15:21 | 47.72846 | 9.65004 | 18738 ft | 399 kts | 269° |
| 2026-05-01 15:21 | 47.72742 | 9.60882 | 18264 ft | 398 kts | 269° |
| 2026-05-01 15:21 | 47.72639 | 9.56821 | 17789 ft | 394 kts | 269° |
| 2026-05-01 15:22 | 47.72402 | 9.48775 | 16777 ft | 389 kts | 268° |
| 2026-05-01 15:22 | 47.72269 | 9.44804 | 16281 ft | 387 kts | 268° |
| 2026-05-01 15:22 | 47.72139 | 9.40786 | 15767 ft | 384 kts | 268° |
| 2026-05-01 15:23 | 47.72035 | 9.36838 | 15282 ft | 381 kts | 269° |
| 2026-05-01 15:23 | 47.71940 | 9.32897 | 14787 ft | 379 kts | 269° |
| 2026-05-01 15:23 | 47.71849 | 9.28989 | 14289 ft | 377 kts | 269° |
| 2026-05-01 15:23 | 47.71757 | 9.25108 | 13782 ft | 375 kts | 269° |
| 2026-05-01 15:24 | 47.71664 | 9.21301 | 13297 ft | 372 kts | 268° |
| 2026-05-01 15:24 | 47.71568 | 9.17460 | 12805 ft | 369 kts | 268° |
| 2026-05-01 15:24 | 47.71471 | 9.13698 | 12316 ft | 366 kts | 268° |
| 2026-05-01 15:24 | 47.71373 | 9.09922 | 11839 ft | 363 kts | 268° |
| 2026-05-01 15:25 | 47.71274 | 9.06168 | 11337 ft | 362 kts | 268° |
| 2026-05-01 15:25 | 47.71176 | 9.02492 | 10861 ft | 359 kts | 268° |
| 2026-05-01 15:25 | 47.71076 | 8.98808 | 10518 ft | 352 kts | 268° |
| 2026-05-01 15:25 | 47.70979 | 8.95280 | 10377 ft | 341 kts | 268° |
| 2026-05-01 15:26 | 47.70879 | 8.91796 | 10166 ft | 333 kts | 267° |
| 2026-05-01 15:26 | 47.70780 | 8.88359 | 9738 ft | 331 kts | 267° |
| 2026-05-01 15:26 | 47.70686 | 8.84948 | 9341 ft | 329 kts | 267° |
| 2026-05-01 15:26 | 47.70591 | 8.81555 | 8961 ft | 327 kts | 267° |
| 2026-05-01 15:27 | 47.70498 | 8.78217 | 8553 ft | 327 kts | 267° |
| 2026-05-01 15:27 | 47.70399 | 8.74833 | 8155 ft | 325 kts | 267° |
| 2026-05-01 15:27 | 47.70300 | 8.71477 | 7763 ft | 324 kts | 266° |
| 2026-05-01 15:28 | 47.70100 | 8.64816 | 6908 ft | 313 kts | 266° |
| 2026-05-01 15:28 | 47.69994 | 8.61656 | 6716 ft | 297 kts | 267° |
| 2026-05-01 15:28 | 47.69907 | 8.58662 | 6572 ft | 281 kts | 267° |
| 2026-05-01 15:29 | 47.69739 | 8.53018 | 6384 ft | 272 kts | 267° |
| 2026-05-01 15:29 | 47.69650 | 8.50238 | 6250 ft | 265 kts | 267° |
| 2026-05-01 15:29 | 47.69348 | 8.44934 | 6012 ft | 253 kts | 248° |
| 2026-05-01 15:30 | 47.67291 | 8.40884 | 5866 ft | 247 kts | 225° |
| 2026-05-01 15:31 | 47.62214 | 8.34443 | 4968 ft | 230 kts | 172° |
| 2026-05-01 15:31 | 47.59800 | 8.37105 | 4504 ft | 221 kts | 125° |
| 2026-05-01 15:32 | 47.57889 | 8.40345 | 4018 ft | 201 kts | 135° |
| 2026-05-01 15:32 | 47.55946 | 8.43029 | 3494 ft | 182 kts | 135° |
| 2026-05-01 15:33 | 47.53351 | 8.46587 | 2780 ft | 161 kts | 134° |
| 2026-05-01 15:34 | 47.50863 | 8.50001 | 2086 ft | 160 kts | 135° |